createdAt,value
2017-06-03T00:00:16.053Z,997.54
2017-06-03T00:01:26.096Z,997.53
2017-06-03T00:02:36.453Z,997.5
2017-06-03T00:03:46.843Z,997.5
2017-06-03T00:04:56.879Z,997.47
2017-06-03T00:06:07.246Z,997.48
2017-06-03T00:07:17.287Z,997.48
2017-06-03T00:08:27.655Z,997.53
2017-06-03T00:09:37.411Z,997.51
2017-06-03T00:10:47.754Z,997.48
2017-06-03T00:11:58.103Z,997.49
2017-06-03T00:13:08.156Z,997.47
2017-06-03T00:14:18.179Z,997.5
2017-06-03T00:15:28.536Z,997.53
2017-06-03T00:16:38.595Z,997.53
2017-06-03T00:17:48.953Z,997.52
2017-06-03T00:18:58.997Z,997.53
2017-06-03T00:20:09.052Z,997.56
2017-06-03T00:21:19.400Z,997.55
2017-06-03T00:22:29.455Z,997.57
2017-06-03T00:23:39.807Z,997.55
2017-06-03T00:24:50.166Z,997.55
2017-06-03T00:26:00.198Z,997.55
2017-06-03T00:27:10.593Z,997.5
2017-06-03T00:28:20.642Z,997.5
2017-06-03T00:29:30.994Z,997.5
2017-06-03T00:30:41.345Z,997.49
2017-06-03T00:31:51.716Z,997.44
2017-06-03T00:33:01.827Z,997.4
2017-06-03T00:34:12.167Z,997.41
2017-06-03T00:35:22.511Z,997.44
2017-06-03T00:36:32.548Z,997.42
2017-06-03T00:37:42.583Z,997.44
2017-06-03T00:38:52.933Z,997.41
2017-06-03T00:40:03.285Z,997.41
2017-06-03T00:41:13.637Z,997.42
2017-06-03T00:42:23.995Z,997.42
2017-06-03T00:43:34.042Z,997.39
2017-06-03T00:44:44.450Z,997.41
2017-06-03T00:45:54.499Z,997.39
2017-06-03T00:47:04.237Z,997.4
2017-06-03T00:48:14.585Z,997.41
2017-06-03T00:49:24.621Z,997.38
2017-06-03T00:50:35.020Z,997.37
2017-06-03T00:51:45.059Z,997.35
2017-06-03T00:52:55.403Z,997.36
2017-06-03T00:54:05.125Z,997.35
2017-06-03T00:55:14.847Z,997.39
2017-06-03T00:56:25.217Z,997.36
2017-06-03T00:57:35.253Z,997.36
2017-06-03T00:58:45.305Z,997.36
2017-06-03T00:59:55.644Z,997.38
2017-06-03T01:01:06.001Z,997.39
2017-06-03T01:02:16.406Z,997.41
2017-06-03T01:03:26.764Z,997.44
2017-06-03T01:04:37.130Z,997.43
2017-06-03T01:05:47.162Z,997.4
2017-06-03T01:06:57.519Z,997.43
2017-06-03T01:08:07.958Z,997.45
2017-06-03T01:09:18.213Z,997.41
2017-06-03T01:10:28.250Z,997.4
2017-06-03T01:11:38.582Z,997.38
2017-06-03T01:12:48.931Z,997.41
2017-06-03T01:13:59.330Z,997.4
2017-06-03T01:15:09.045Z,997.38
2017-06-03T01:16:19.392Z,997.39
2017-06-03T01:17:29.749Z,997.41
2017-06-03T01:18:39.805Z,997.42
2017-06-03T01:19:50.212Z,997.45
2017-06-03T01:21:00.554Z,997.49
2017-06-03T01:22:10.887Z,997.46
2017-06-03T01:23:21.248Z,997.5
2017-06-03T01:24:31.283Z,997.47
2017-06-03T01:25:41.639Z,997.44
2017-06-03T01:26:51.987Z,997.43
2017-06-03T01:28:02.029Z,997.42
2017-06-03T01:29:12.378Z,997.37
2017-06-03T01:30:22.740Z,997.36
2017-06-03T01:31:33.135Z,997.33
2017-06-03T01:32:43.208Z,997.33
2017-06-03T01:33:53.259Z,997.31
2017-06-03T01:35:03.605Z,997.34
2017-06-03T01:36:13.957Z,997.31
2017-06-03T01:37:24.287Z,997.28
2017-06-03T01:38:34.847Z,997.34
2017-06-03T01:39:45.212Z,997.31
2017-06-03T01:40:55.242Z,997.35
2017-06-03T01:42:05.285Z,997.32
2017-06-03T01:43:15.377Z,997.3
2017-06-03T01:44:25.106Z,997.26
2017-06-03T01:45:35.459Z,997.29
2017-06-03T01:46:45.818Z,997.31
2017-06-03T01:47:55.871Z,997.29
2017-06-03T01:49:06.272Z,997.23
2017-06-03T01:50:16.620Z,997.2
2017-06-03T01:51:26.661Z,997.2
2017-06-03T01:52:36.707Z,997.18
2017-06-03T01:53:47.068Z,997.14
2017-06-03T01:54:57.421Z,997.17
2017-06-03T01:56:07.783Z,997.13
2017-06-03T01:57:17.810Z,997.14
2017-06-03T01:58:27.536Z,997.13
2017-06-03T01:59:37.613Z,997.17
2017-06-03T02:00:47.636Z,997.16
2017-06-03T02:01:57.996Z,997.18
2017-06-03T02:03:08.046Z,997.19
2017-06-03T02:04:18.390Z,997.2
2017-06-03T02:05:28.827Z,997.17
2017-06-03T02:06:39.066Z,997.22
2017-06-03T02:07:49.421Z,997.24
2017-06-03T02:08:59.466Z,997.22
2017-06-03T02:10:09.822Z,997.22
2017-06-03T02:11:19.875Z,997.2
2017-06-03T02:12:29.916Z,997.23
2017-06-03T02:13:40.327Z,997.2
2017-06-03T02:14:50.356Z,997.17
2017-06-03T02:16:00.401Z,997.15
2017-06-03T02:17:10.797Z,997.13
2017-06-03T02:18:21.157Z,997.11
2017-06-03T02:19:31.212Z,997.11
2017-06-03T02:20:41.554Z,997.08
2017-06-03T02:21:51.896Z,997.09
2017-06-03T02:23:02.304Z,997.11
2017-06-03T02:24:12.660Z,997.09
2017-06-03T02:25:23.005Z,997.11
2017-06-03T02:26:33.353Z,997.1
2017-06-03T02:27:43.710Z,997.08
2017-06-03T02:28:54.236Z,997.13
2017-06-03T02:30:04.589Z,997.1
2017-06-03T02:31:14.332Z,997.13
2017-06-03T02:32:24.381Z,997.2
2017-06-03T02:33:34.729Z,997.19
2017-06-03T02:34:45.131Z,997.18
2017-06-03T02:35:55.484Z,997.22
2017-06-03T02:37:05.843Z,997.28
2017-06-03T02:38:15.889Z,997.24
2017-06-03T02:39:25.917Z,997.24
2017-06-03T02:40:36.015Z,997.21
2017-06-03T02:41:46.366Z,997.28
2017-06-03T02:42:56.707Z,997.19
2017-06-03T02:44:07.071Z,997.26
2017-06-03T02:45:17.408Z,997.25
2017-06-03T02:46:27.809Z,997.25
2017-06-03T02:47:37.551Z,997.27
2017-06-03T02:48:47.898Z,997.28
2017-06-03T02:49:57.963Z,997.31
2017-06-03T02:51:08.317Z,997.35
2017-06-03T02:52:18.078Z,997.33
2017-06-03T02:53:28.112Z,997.35
2017-06-03T02:54:38.471Z,997.32
2017-06-03T02:55:48.508Z,997.36
2017-06-03T02:56:58.876Z,997.36
2017-06-03T02:58:09.278Z,997.4
2017-06-03T02:59:19.313Z,997.38
2017-06-03T03:00:29.673Z,997.39
2017-06-03T03:01:39.714Z,997.39
2017-06-03T03:33:53.139Z,997.78
2017-06-03T03:35:03.477Z,997.82
2017-06-03T03:36:13.826Z,997.83
2017-06-03T03:37:23.865Z,997.85
2017-06-03T03:38:33.891Z,997.93
2017-06-03T03:39:44.276Z,997.89
2017-06-03T03:40:54.304Z,997.84
2017-06-03T03:42:04.345Z,997.87
2017-06-03T03:43:14.374Z,997.9
2017-06-03T03:44:24.404Z,997.89
2017-06-03T03:45:34.489Z,997.93
2017-06-03T03:46:44.533Z,997.94
2017-06-03T03:47:54.877Z,997.87
2017-06-03T03:49:05.225Z,997.87
2017-06-03T03:50:15.266Z,997.85
2017-06-03T03:51:25.666Z,997.88
2017-06-03T03:52:35.715Z,997.87
2017-06-03T03:53:45.757Z,997.88
2017-06-03T03:54:56.104Z,997.84
2017-06-03T03:56:06.448Z,997.85
2017-06-03T03:57:17.072Z,997.86
2017-06-03T03:58:27.428Z,997.87
2017-06-03T03:59:37.791Z,997.87
2017-06-03T04:00:48.143Z,997.89
2017-06-03T04:01:58.494Z,997.88
2017-06-03T04:03:08.904Z,997.86
2017-06-03T04:04:19.247Z,997.89
2017-06-03T04:05:29.596Z,997.92
2017-06-03T04:06:39.949Z,997.9
2017-06-03T04:07:49.665Z,997.95
2017-06-03T04:08:59.723Z,997.92
2017-06-03T04:10:10.066Z,997.97
2017-06-03T04:11:20.430Z,998.01
2017-06-03T04:12:30.789Z,998.02
2017-06-03T04:13:40.826Z,997.98
2017-06-03T04:14:50.950Z,998.01
2017-06-03T04:16:01.301Z,998.05
2017-06-03T04:17:11.341Z,998.04
2017-06-03T04:18:21.685Z,998.2
2017-06-03T04:19:32.036Z,998.48
2017-06-03T04:20:42.379Z,998.53
2017-06-03T04:21:52.133Z,998.42
2017-06-03T04:23:02.494Z,998.51
2017-06-03T04:24:12.833Z,998.63
2017-06-03T04:25:22.894Z,998.64
2017-06-03T04:26:32.941Z,998.57
2017-06-03T04:27:43.294Z,998.55
2017-06-03T04:28:53.023Z,998.62
2017-06-03T04:30:03.065Z,998.64
2017-06-03T04:31:13.106Z,998.56
2017-06-03T04:32:23.450Z,998.6
2017-06-03T04:33:33.485Z,998.54
2017-06-03T04:34:43.844Z,998.46
2017-06-03T04:35:54.197Z,998.43
2017-06-03T04:37:04.536Z,998.43
2017-06-03T04:38:14.899Z,998.35
2017-06-03T04:39:25.242Z,998.34
2017-06-03T04:40:35.584Z,998.29
2017-06-03T04:41:45.624Z,998.35
2017-06-03T04:42:55.661Z,998.35
2017-06-03T04:44:06.007Z,998.35
2017-06-03T04:45:16.363Z,998.41
2017-06-03T04:46:26.410Z,998.4
2017-06-03T04:47:36.767Z,998.4
2017-06-03T04:48:47.113Z,998.46
2017-06-03T04:49:57.520Z,998.51
2017-06-03T04:51:07.878Z,998.52
2017-06-03T04:52:18.244Z,998.53
2017-06-03T04:53:28.589Z,998.54
2017-06-03T04:54:38.928Z,998.55
2017-06-03T04:55:49.290Z,998.61
2017-06-03T04:56:59.640Z,998.62
2017-06-03T04:58:09.978Z,998.66
2017-06-03T04:59:20.355Z,998.69
2017-06-03T05:00:30.398Z,998.68
2017-06-03T05:01:40.509Z,998.68
2017-06-03T05:02:50.870Z,998.77
2017-06-03T05:04:01.230Z,998.74
2017-06-03T05:05:11.276Z,998.68
2017-06-03T05:06:21.634Z,998.62
2017-06-03T05:07:32.033Z,998.58
2017-06-03T05:08:42.381Z,998.63
2017-06-03T05:09:52.425Z,998.62
2017-06-03T05:11:02.478Z,998.63
2017-06-03T05:12:12.845Z,998.6
2017-06-03T05:13:22.950Z,998.61
2017-06-03T05:14:32.992Z,998.66
2017-06-03T05:15:43.366Z,998.64
2017-06-03T05:16:53.405Z,998.67
2017-06-03T05:18:03.449Z,998.71
2017-06-03T05:19:13.849Z,998.72
2017-06-03T05:20:24.211Z,998.71
2017-06-03T05:21:34.274Z,998.76
2017-06-03T05:22:44.631Z,998.78
2017-06-03T05:23:54.677Z,998.8
2017-06-03T05:25:05.032Z,998.82
2017-06-03T05:26:15.387Z,998.84
2017-06-03T05:27:25.752Z,998.9
2017-06-03T05:28:36.108Z,998.88
2017-06-03T05:29:46.145Z,998.81
2017-06-03T05:30:56.499Z,998.8
2017-06-03T05:32:06.543Z,998.63
2017-06-03T05:33:16.926Z,998.76
2017-06-03T05:34:26.977Z,998.63
2017-06-03T05:35:37.338Z,998.76
2017-06-03T05:36:47.706Z,998.71
2017-06-03T05:37:58.051Z,998.66
2017-06-03T05:39:08.421Z,998.66
2017-06-03T05:40:18.770Z,998.83
2017-06-03T05:41:29.124Z,998.67
2017-06-03T05:42:39.163Z,998.77
2017-06-03T05:43:49.506Z,998.74
2017-06-03T05:44:59.568Z,998.73
2017-06-03T05:46:09.930Z,999.02
2017-06-03T05:47:20.360Z,999.04
2017-06-03T05:48:30.715Z,999.03
2017-06-03T05:49:41.080Z,998.96
2017-06-03T05:50:51.444Z,998.98
2017-06-03T05:52:01.480Z,999
2017-06-03T05:53:11.518Z,998.97
2017-06-03T05:54:21.611Z,998.97
2017-06-03T05:55:31.979Z,998.96
2017-06-03T05:56:42.343Z,998.99
2017-06-03T05:57:52.704Z,998.97
2017-06-03T05:59:03.055Z,998.97
2017-06-03T06:00:13.471Z,998.96
2017-06-03T06:01:23.821Z,998.95
2017-06-03T06:02:34.179Z,998.98
2017-06-03T06:03:44.531Z,998.95
2017-06-03T06:04:53.971Z,998.96
2017-06-03T06:06:04.079Z,998.98
2017-06-03T06:07:14.127Z,998.96
2017-06-03T06:08:24.698Z,998.93
2017-06-03T06:09:35.046Z,998.96
2017-06-03T06:10:45.087Z,998.99
2017-06-03T06:11:55.485Z,999.11
2017-06-03T06:13:05.855Z,999.42
2017-06-03T06:14:15.892Z,999.44
2017-06-03T06:15:26.236Z,999.33
2017-06-03T06:16:36.589Z,999.21
2017-06-03T06:17:47.022Z,999.1
2017-06-03T06:18:57.390Z,999.04
2017-06-03T06:20:07.438Z,999.07
2017-06-03T06:21:17.812Z,998.73
2017-06-03T06:22:28.169Z,998.73
2017-06-03T06:23:38.638Z,999.04
2017-06-03T06:24:49.023Z,999.09
2017-06-03T06:25:59.370Z,999.15
2017-06-03T06:27:09.723Z,999.05
2017-06-03T06:28:20.083Z,998.79
2017-06-03T06:29:30.182Z,999.14
2017-06-03T06:30:40.543Z,999.13
2017-06-03T06:31:50.589Z,999.05
2017-06-03T06:33:00.943Z,999.07
2017-06-03T06:34:11.297Z,999.05
2017-06-03T06:35:21.703Z,999
2017-06-03T06:36:31.746Z,999.08
2017-06-03T06:37:41.478Z,999.01
2017-06-03T06:38:51.825Z,998.99
2017-06-03T06:40:02.181Z,998.99
2017-06-03T06:41:12.223Z,999.02
2017-06-03T06:42:22.586Z,998.97
2017-06-03T06:43:33.208Z,998.99
2017-06-03T06:44:43.585Z,998.99
2017-06-03T06:45:53.931Z,998.98
2017-06-03T06:47:04.070Z,998.96
2017-06-03T06:48:13.881Z,998.97
2017-06-03T06:49:24.303Z,999.01
2017-06-03T06:50:34.057Z,998.94
2017-06-03T06:51:44.410Z,998.97
2017-06-03T06:52:54.517Z,998.95
2017-06-03T06:54:04.875Z,998.9
2017-06-03T06:55:15.248Z,998.92
2017-06-03T06:56:25.293Z,998.9
2017-06-03T06:57:35.345Z,998.89
2017-06-03T06:58:45.445Z,998.87
2017-06-03T06:59:55.802Z,998.91
2017-06-03T07:01:06.151Z,998.94
2017-06-03T07:02:16.522Z,998.94
2017-06-03T07:03:27.077Z,998.92
2017-06-03T07:04:37.437Z,998.92
2017-06-03T07:05:47.795Z,998.9
2017-06-03T07:06:57.834Z,998.89
2017-06-03T07:08:08.185Z,998.87
2017-06-03T07:09:18.220Z,998.92
2017-06-03T07:10:28.262Z,998.87
2017-06-03T07:11:38.616Z,998.87
2017-06-03T07:12:48.968Z,998.88
2017-06-03T07:13:59.334Z,998.88
2017-06-03T07:15:09.698Z,998.86
2017-06-03T07:16:19.802Z,998.82
2017-06-03T07:17:29.838Z,998.84
2017-06-03T07:18:39.865Z,998.84
2017-06-03T07:19:49.910Z,998.85
2017-06-03T07:20:59.967Z,998.84
2017-06-03T07:22:10.405Z,998.83
2017-06-03T07:23:20.777Z,998.8
2017-06-03T07:24:31.130Z,998.83
2017-06-03T07:25:41.482Z,998.8
2017-06-03T07:26:51.833Z,998.75
2017-06-03T07:28:02.195Z,998.75
2017-06-03T07:29:12.602Z,998.73
2017-06-03T07:30:22.947Z,998.77
2017-06-03T07:31:33.310Z,998.75
2017-06-03T07:32:43.371Z,998.76
2017-06-03T07:33:53.728Z,998.82
2017-06-03T07:35:03.777Z,998.83
2017-06-03T07:36:14.136Z,998.81
2017-06-03T07:37:24.490Z,998.81
2017-06-03T07:38:34.830Z,998.77
2017-06-03T07:39:45.250Z,998.75
2017-06-03T07:40:55.619Z,998.75
2017-06-03T07:42:05.753Z,998.75
2017-06-03T07:43:15.809Z,998.76
2017-06-03T07:44:26.171Z,998.7
2017-06-03T07:45:36.300Z,998.71
2017-06-03T07:46:46.660Z,998.73
2017-06-03T07:47:57.016Z,998.74
2017-06-03T07:49:07.365Z,998.72
2017-06-03T07:50:17.718Z,998.75
2017-06-03T07:51:28.145Z,998.74
2017-06-03T07:52:38.191Z,998.74
2017-06-03T07:53:48.563Z,998.73
2017-06-03T07:54:58.922Z,998.71
2017-06-03T07:56:08.991Z,998.69
2017-06-03T07:57:19.431Z,998.68
2017-06-03T07:58:29.782Z,998.66
2017-06-03T07:59:40.135Z,998.63
2017-06-03T08:00:50.165Z,998.65
2017-06-03T08:02:00.201Z,998.62
2017-06-03T08:03:10.582Z,998.64
2017-06-03T08:04:20.945Z,998.62
2017-06-03T08:05:30.996Z,998.61
2017-06-03T08:06:41.355Z,998.61
2017-06-03T08:07:51.401Z,998.6
2017-06-03T08:09:01.809Z,998.55
2017-06-03T08:10:12.157Z,998.55
2017-06-03T08:11:22.505Z,998.53
2017-06-03T08:12:32.546Z,998.51
2017-06-03T08:13:42.908Z,998.55
2017-06-03T08:14:52.991Z,998.54
2017-06-03T08:16:03.048Z,998.53
2017-06-03T08:17:13.430Z,998.52
2017-06-03T08:18:23.780Z,998.52
2017-06-03T08:19:34.142Z,998.53
2017-06-03T08:20:44.560Z,998.47
2017-06-03T08:21:54.948Z,998.48
2017-06-03T08:23:05.308Z,998.49
2017-06-03T08:24:15.678Z,998.47
2017-06-03T08:25:25.762Z,998.46
2017-06-03T08:26:35.887Z,998.46
2017-06-03T08:27:46.242Z,998.44
2017-06-03T08:28:56.626Z,998.42
2017-06-03T08:30:06.697Z,998.43
2017-06-03T08:31:16.729Z,998.46
2017-06-03T08:32:26.844Z,998.44
2017-06-03T08:33:36.883Z,998.4
2017-06-03T08:34:46.936Z,998.39
2017-06-03T08:35:57.288Z,998.38
2017-06-03T08:37:07.677Z,998.38
2017-06-03T08:38:18.040Z,998.38
2017-06-03T08:39:28.401Z,998.38
2017-06-03T08:40:38.749Z,998.39
2017-06-03T08:41:48.809Z,998.37
2017-06-03T08:42:59.190Z,998.34
2017-06-03T08:44:09.591Z,998.33
2017-06-03T08:45:19.640Z,998.34
2017-06-03T08:46:29.698Z,998.31
2017-06-03T08:47:40.084Z,998.3
2017-06-03T08:48:50.455Z,998.3
2017-06-03T08:50:00.868Z,998.3
2017-06-03T08:51:10.616Z,998.26
2017-06-03T08:52:20.983Z,998.29
2017-06-03T08:53:31.327Z,998.28
2017-06-03T08:54:41.371Z,998.21
2017-06-03T08:55:51.788Z,998.25
2017-06-03T08:57:02.139Z,998.19
2017-06-03T08:58:12.180Z,998.19
2017-06-03T08:59:22.548Z,998.19
2017-06-03T09:00:32.591Z,998.17
2017-06-03T09:01:42.319Z,998.16
2017-06-03T09:02:52.676Z,998.2
2017-06-03T09:04:03.034Z,998.16
2017-06-03T09:05:13.383Z,998.2
2017-06-03T09:06:23.761Z,998.16
2017-06-03T09:07:34.147Z,998.14
2017-06-03T09:08:43.878Z,998.14
2017-06-03T09:09:54.269Z,998.13
2017-06-03T09:11:04.634Z,998.12
2017-06-03T09:12:14.993Z,998.11
2017-06-03T09:13:25.344Z,998.11
2017-06-03T09:14:35.386Z,998.11
2017-06-03T09:15:45.445Z,998.06
2017-06-03T09:16:55.170Z,998.07
2017-06-03T09:18:05.581Z,998.04
2017-06-03T09:19:15.958Z,998.07
2017-06-03T09:20:26.001Z,998.07
2017-06-03T09:21:36.374Z,998.06
2017-06-03T09:22:46.430Z,998.07
2017-06-03T09:23:56.531Z,998.04
2017-06-03T09:25:06.613Z,998.04
2017-06-03T09:26:16.989Z,998.01
2017-06-03T09:27:27.040Z,997.98
2017-06-03T09:28:37.412Z,997.97
2017-06-03T09:29:47.521Z,997.94
2017-06-03T09:30:57.252Z,997.9
2017-06-03T09:32:07.307Z,997.9
2017-06-03T09:33:17.661Z,997.91
2017-06-03T09:34:27.726Z,997.89
2017-06-03T09:35:38.146Z,997.85
2017-06-03T09:36:48.509Z,997.84
2017-06-03T09:37:58.575Z,997.82
2017-06-03T09:39:08.633Z,997.79
2017-06-03T09:40:18.699Z,997.83
2017-06-03T09:41:29.055Z,997.79
2017-06-03T09:42:39.413Z,997.8
2017-06-03T09:43:49.457Z,997.76
2017-06-03T09:44:59.179Z,997.79
2017-06-03T09:46:09.244Z,997.79
2017-06-03T09:47:19.291Z,997.79
2017-06-03T09:48:29.638Z,997.72
2017-06-03T09:49:40.015Z,997.72
2017-06-03T09:50:50.366Z,997.69
2017-06-03T09:52:00.739Z,997.67
2017-06-03T09:53:11.140Z,997.63
2017-06-03T09:54:20.868Z,997.64
2017-06-03T09:55:31.231Z,997.59
2017-06-03T09:56:41.621Z,997.61
2017-06-03T09:57:51.983Z,997.59
2017-06-03T09:59:02.103Z,997.58
2017-06-03T10:00:12.463Z,997.55
2017-06-03T10:01:22.833Z,997.52
2017-06-03T10:02:33.222Z,997.56
2017-06-03T10:04:02.163Z,997.54
2017-06-03T10:05:12.573Z,997.55
2017-06-03T10:06:22.635Z,997.52
2017-06-03T10:07:32.985Z,997.55
2017-06-03T10:08:43.349Z,997.57
2017-06-03T10:09:53.133Z,997.55
2017-06-03T10:11:03.481Z,997.57
2017-06-03T10:12:13.854Z,997.57
2017-06-03T10:13:24.200Z,997.56
2017-06-03T10:14:34.248Z,997.56
2017-06-03T10:15:44.679Z,997.56
2017-06-03T10:16:54.429Z,997.59
2017-06-03T10:18:04.476Z,997.58
2017-06-03T10:19:14.833Z,997.62
2017-06-03T10:20:25.205Z,997.59
2017-06-03T10:21:35.618Z,997.64
2017-06-03T10:22:45.989Z,997.62
2017-06-03T10:23:56.036Z,997.6
2017-06-03T10:25:06.388Z,997.59
2017-06-03T10:26:16.436Z,997.59
2017-06-03T10:27:26.826Z,997.61
2017-06-03T10:28:37.186Z,997.6
2017-06-03T10:29:47.544Z,997.57
2017-06-03T10:30:57.602Z,997.53
2017-06-03T10:32:07.657Z,997.57
2017-06-03T10:33:17.735Z,997.47
2017-06-03T10:34:28.128Z,997.51
2017-06-03T10:35:38.195Z,997.48
2017-06-03T10:36:48.250Z,997.51
2017-06-03T10:37:58.604Z,997.45
2017-06-03T10:39:08.700Z,997.43
2017-06-03T10:40:19.062Z,997.45
2017-06-03T10:41:29.408Z,997.44
2017-06-03T10:42:39.154Z,997.43
2017-06-03T10:43:49.523Z,997.42
2017-06-03T10:44:59.913Z,997.42
2017-06-03T10:46:09.948Z,997.41
2017-06-03T10:47:20.013Z,997.39
2017-06-03T10:48:29.761Z,997.4
2017-06-03T10:49:39.808Z,997.38
2017-06-03T10:50:50.216Z,997.36
2017-06-03T10:52:00.575Z,997.38
2017-06-03T10:53:10.645Z,997.34
2017-06-03T10:54:20.696Z,997.31
2017-06-03T10:55:31.054Z,997.33
2017-06-03T10:56:41.490Z,997.31
2017-06-03T10:57:51.855Z,997.37
2017-06-03T10:59:01.915Z,997.32
2017-06-03T11:00:12.284Z,997.31
2017-06-03T11:01:22.642Z,997.28
2017-06-03T11:02:33.026Z,997.3
2017-06-03T11:03:43.084Z,997.26
2017-06-03T11:04:53.462Z,997.27
2017-06-03T11:06:03.516Z,997.26
2017-06-03T11:07:13.872Z,997.24
2017-06-03T11:08:24.291Z,997.2
2017-06-03T11:09:34.335Z,997.22
2017-06-03T11:10:44.369Z,997.17
2017-06-03T11:11:54.726Z,997.16
2017-06-03T11:13:05.084Z,997.12
2017-06-03T11:14:15.488Z,997.12
2017-06-03T11:15:25.553Z,997.09
2017-06-03T11:16:35.612Z,997.1
2017-06-03T11:17:45.666Z,997.13
2017-06-03T11:18:56.024Z,997.14
2017-06-03T11:20:06.438Z,997.16
2017-06-03T11:21:16.807Z,997.17
2017-06-03T11:22:26.540Z,997.12
2017-06-03T11:23:36.897Z,997.12
2017-06-03T11:24:47.266Z,997.12
2017-06-03T11:25:57.687Z,997.07
2017-06-03T11:27:08.085Z,997.1
2017-06-03T11:28:18.152Z,997.1
2017-06-03T11:29:28.512Z,997.09
2017-06-03T11:30:38.552Z,997.1
2017-06-03T11:31:48.649Z,997.13
2017-06-03T11:32:59.021Z,997.09
2017-06-03T11:34:09.368Z,997
2017-06-03T11:35:19.715Z,997
2017-06-03T11:36:30.022Z,997.02
2017-06-03T11:37:40.380Z,996.99
2017-06-03T11:38:50.410Z,997.01
2017-06-03T11:40:00.780Z,997
2017-06-03T11:41:11.155Z,996.99
2017-06-03T11:42:21.521Z,997.02
2017-06-03T11:43:31.876Z,997
2017-06-03T11:44:42.233Z,997
2017-06-03T11:45:52.606Z,996.95
2017-06-03T11:47:02.955Z,996.93
2017-06-03T11:48:13.326Z,996.86
2017-06-03T11:49:23.103Z,996.86
2017-06-03T11:50:33.484Z,996.86
2017-06-03T11:51:43.858Z,996.85
2017-06-03T11:52:54.213Z,996.87
2017-06-03T11:54:04.268Z,996.82
2017-06-03T11:55:14.621Z,996.81
2017-06-03T11:56:24.996Z,996.83
2017-06-03T11:57:35.352Z,996.8
2017-06-03T11:58:45.392Z,996.77
2017-06-03T11:59:55.757Z,996.74
2017-06-03T12:01:06.187Z,996.69
2017-06-03T12:02:16.562Z,996.72
2017-06-03T12:03:26.950Z,996.7
2017-06-03T12:04:36.998Z,996.7
2017-06-03T12:05:47.354Z,996.71
2017-06-03T12:06:57.757Z,996.71
2017-06-03T12:08:08.112Z,996.68
2017-06-03T12:09:18.184Z,996.72
2017-06-03T12:10:28.697Z,996.69
2017-06-03T12:11:38.424Z,996.73
2017-06-03T12:12:48.524Z,996.74
2017-06-03T12:13:58.562Z,996.67
2017-06-03T12:15:08.600Z,996.65
2017-06-03T12:16:18.671Z,996.66
2017-06-03T12:17:28.725Z,996.68
2017-06-03T12:18:39.106Z,996.66
2017-06-03T12:19:49.148Z,996.63
2017-06-03T12:20:59.543Z,996.66
2017-06-03T12:22:09.903Z,996.6
2017-06-03T12:23:20.276Z,996.57
2017-06-03T12:24:29.695Z,996.55
2017-06-03T12:25:40.055Z,996.52
2017-06-03T12:26:50.103Z,996.49
2017-06-03T12:28:00.455Z,996.46
2017-06-03T12:29:10.219Z,996.47
2017-06-03T12:30:20.637Z,996.49
2017-06-03T12:31:31.008Z,996.53
2017-06-03T12:32:41.369Z,996.49
2017-06-03T12:33:51.423Z,996.5
2017-06-03T12:35:01.500Z,996.45
2017-06-03T12:36:11.915Z,996.39
2017-06-03T12:37:21.952Z,996.37
2017-06-03T12:38:32.315Z,996.39
2017-06-03T12:39:42.665Z,996.38
2017-06-03T12:40:53.026Z,996.4
2017-06-03T12:42:03.073Z,996.38
2017-06-03T12:43:13.128Z,996.38
2017-06-03T12:44:23.199Z,996.38
2017-06-03T12:45:33.263Z,996.41
2017-06-03T12:46:43.624Z,996.4
2017-06-03T12:47:54.054Z,996.39
2017-06-03T12:49:04.112Z,996.39
2017-06-03T12:50:14.169Z,996.37
2017-06-03T12:51:24.220Z,996.36
2017-06-03T12:52:34.291Z,996.37
2017-06-03T12:53:44.713Z,996.31
2017-06-03T12:54:55.067Z,996.26
2017-06-03T12:56:05.109Z,996.29
2017-06-03T12:57:15.462Z,996.17
2017-06-03T12:58:25.530Z,996.18
2017-06-03T12:59:35.948Z,996.2
2017-06-03T13:00:45.690Z,996.15
2017-06-03T13:01:56.070Z,996.2
2017-06-03T13:03:06.143Z,996.19
2017-06-03T13:04:16.503Z,996.2
2017-06-03T13:05:26.612Z,996.2
2017-06-03T13:06:36.044Z,996.16
2017-06-03T13:07:46.428Z,996.11
2017-06-03T13:08:56.765Z,996.17
2017-06-03T13:10:07.115Z,996.16
2017-06-03T13:11:17.160Z,996.14
2017-06-03T13:12:26.885Z,996.06
2017-06-03T13:13:36.936Z,996.07
2017-06-03T13:14:46.993Z,996.09
2017-06-03T13:15:57.347Z,996.06
2017-06-03T13:17:07.439Z,996.01
2017-06-03T13:18:17.492Z,996.04
2017-06-03T13:19:27.858Z,996.03
2017-06-03T13:20:38.210Z,995.98
2017-06-03T13:21:48.573Z,995.97
2017-06-03T13:22:58.632Z,995.93
2017-06-03T13:24:09.001Z,995.91
2017-06-03T13:25:19.351Z,995.95
2017-06-03T13:26:29.410Z,995.97
2017-06-03T13:27:39.815Z,995.97
2017-06-03T13:28:50.212Z,995.95
2017-06-03T13:29:59.952Z,995.95
2017-06-03T13:31:10.316Z,995.91
2017-06-03T13:32:20.358Z,995.92
2017-06-03T13:33:30.409Z,995.86
2017-06-03T13:34:39.898Z,995.86
2017-06-03T13:35:49.945Z,995.83
2017-06-03T13:37:00.319Z,995.9
2017-06-03T13:38:10.884Z,995.89
2017-06-03T13:39:21.261Z,995.89
2017-06-03T13:40:31.678Z,995.82
2017-06-03T13:41:41.726Z,995.85
2017-06-03T13:42:52.083Z,995.83
2017-06-03T13:44:02.137Z,995.81
2017-06-03T13:45:12.496Z,995.79
2017-06-03T13:46:22.906Z,995.81
2017-06-03T13:47:32.954Z,995.82
2017-06-03T13:48:43.308Z,995.78
2017-06-03T13:49:53.371Z,995.8
2017-06-03T13:51:03.117Z,995.79
2017-06-03T13:52:13.227Z,995.79
2017-06-03T13:53:23.574Z,995.82
2017-06-03T13:54:33.625Z,995.76
2017-06-03T13:55:43.991Z,995.74
2017-06-03T13:56:54.365Z,995.77
2017-06-03T13:58:04.735Z,995.78
2017-06-03T13:59:14.768Z,995.75
2017-06-03T14:00:24.501Z,995.75
2017-06-03T14:01:34.921Z,995.73
2017-06-03T14:02:45.008Z,995.72
2017-06-03T14:03:55.379Z,995.74
2017-06-03T14:05:05.767Z,995.7
2017-06-03T14:06:16.131Z,995.68
2017-06-03T14:07:26.180Z,995.66
2017-06-03T14:08:36.546Z,995.63
2017-06-03T14:09:46.912Z,995.67
2017-06-03T14:10:57.333Z,995.64
2017-06-03T14:12:07.389Z,995.68
2017-06-03T14:13:17.792Z,995.67
2017-06-03T14:14:27.845Z,995.65
2017-06-03T14:15:37.876Z,995.66
2017-06-03T14:16:47.934Z,995.64
2017-06-03T14:17:57.977Z,995.61
2017-06-03T14:19:08.357Z,995.58
2017-06-03T14:20:18.726Z,995.62
2017-06-03T14:21:29.090Z,995.62
2017-06-03T14:22:39.146Z,995.61
2017-06-03T14:23:49.186Z,995.6
2017-06-03T14:24:59.633Z,995.57
2017-06-03T14:26:09.694Z,995.57
2017-06-03T14:27:20.065Z,995.6
2017-06-03T14:28:30.432Z,995.63
2017-06-03T14:29:40.782Z,995.66
2017-06-03T14:30:50.883Z,995.65
2017-06-03T14:32:01.274Z,995.65
2017-06-03T14:33:11.020Z,995.66
2017-06-03T14:34:21.367Z,995.61
2017-06-03T14:35:31.742Z,995.64
2017-06-03T14:36:41.857Z,995.63
2017-06-03T14:37:52.226Z,995.6
2017-06-03T14:39:02.583Z,995.6
2017-06-03T14:40:12.640Z,995.58
2017-06-03T14:41:22.985Z,995.59
2017-06-03T14:42:33.033Z,995.54
2017-06-03T14:43:43.404Z,995.48
2017-06-03T14:44:53.135Z,995.5
2017-06-03T14:46:03.502Z,995.48
2017-06-03T14:47:13.851Z,995.46
2017-06-03T14:48:24.324Z,995.51
2017-06-03T14:49:34.693Z,995.46
2017-06-03T14:50:45.056Z,995.47
2017-06-03T14:51:55.103Z,995.44
2017-06-03T14:53:05.474Z,995.42
2017-06-03T14:54:15.850Z,995.44
2017-06-03T14:55:25.888Z,995.43
2017-06-03T14:56:36.248Z,995.42
2017-06-03T14:57:46.615Z,995.46
2017-06-03T14:58:56.985Z,995.4
2017-06-03T15:00:07.405Z,995.4
2017-06-03T15:01:17.767Z,995.4
2017-06-03T15:02:28.136Z,995.4
2017-06-03T15:03:38.200Z,995.4
2017-06-03T15:04:48.253Z,995.35
2017-06-03T15:05:58.684Z,995.36
2017-06-03T15:07:09.043Z,995.37
2017-06-03T15:08:19.408Z,995.38
2017-06-03T15:09:29.458Z,995.38
2017-06-03T15:10:39.514Z,995.33